Time,TemperatureF,DewpointF,PressureIn,WindDirection,WindDirectionDegrees,WindSpeedMPH,WindSpeedGustMPH,Humidity,HourlyPrecipIn,Conditions,Clouds,dailyrainin,SoftwareType,DateUTC
2013-01-06 00:04:00,49.0,46.4,30.04,North,0,0.0,0.0,91,0.01,,,0.00,WUHU216HW,2013-01-06 08:04:00,
2013-01-06 00:09:00,49.0,46.4,30.04,North,0,0.0,0.0,91,0.01,,,0.00,WUHU216HW,2013-01-06 08:09:00,
2013-01-06 00:14:00,49.0,46.4,30.04,North,0,0.0,0.0,91,0.01,,,0.00,WUHU216HW,2013-01-06 08:14:00,
2013-01-06 00:19:00,49.0,46.4,30.04,North,0,0.0,0.0,91,0.01,,,0.00,WUHU216HW,2013-01-06 08:19:00,
2013-01-06 00:24:00,49.0,46.4,30.03,North,0,0.0,0.0,91,0.01,,,0.00,WUHU216HW,2013-01-06 08:24:00,
2013-01-06 00:29:00,49.0,46.4,30.03,North,0,0.0,0.0,91,0.01,,,0.00,WUHU216HW,2013-01-06 08:29:00,
2013-01-06 00:34:00,49.0,46.4,30.03,North,0,0.0,0.0,91,0.01,,,0.00,WUHU216HW,2013-01-06 08:34:00,
2013-01-06 00:39:00,49.0,46.4,30.03,North,0,0.0,0.0,91,0.01,,,0.00,WUHU216HW,2013-01-06 08:39:00,
2013-01-06 00:44:00,49.0,46.4,30.03,North,0,0.0,0.0,91,0.01,,,0.00,WUHU216HW,2013-01-06 08:44:00,
2013-01-06 00:49:00,49.0,46.4,30.03,North,0,0.0,0.0,91,0.01,,,0.00,WUHU216HW,2013-01-06 08:49:00,
2013-01-06 00:54:00,49.0,46.4,30.02,North,0,0.0,0.0,91,0.01,,,0.00,WUHU216HW,2013-01-06 08:54:00,
2013-01-06 00:59:00,49.0,46.4,30.03,North,0,0.0,0.0,91,0.00,,,0.00,WUHU216HW,2013-01-06 08:59:00,
2013-01-06 01:04:00,49.0,46.4,30.03,North,0,0.0,0.0,91,0.00,,,0.00,WUHU216HW,2013-01-06 09:04:00,
2013-01-06 01:09:00,49.0,46.4,30.03,North,0,0.0,0.0,91,0.01,,,0.01,WUHU216HW,2013-01-06 09:09:00,
2013-01-06 01:14:00,49.0,46.7,30.03,North,0,0.0,0.0,92,0.01,,,0.01,WUHU216HW,2013-01-06 09:14:00,
2013-01-06 01:19:00,49.0,46.7,30.03,North,0,0.0,0.0,92,0.02,,,0.02,WUHU216HW,2013-01-06 09:19:00,
2013-01-06 01:24:00,49.1,46.9,30.03,North,0,0.0,0.0,92,0.02,,,0.02,WUHU216HW,2013-01-06 09:24:00,
2013-01-06 01:29:00,49.1,46.9,30.03,North,0,0.0,0.0,92,0.02,,,0.02,WUHU216HW,2013-01-06 09:29:00,
2013-01-06 01:34:00,49.1,46.9,30.03,North,0,0.0,0.0,92,0.02,,,0.02,WUHU216HW,2013-01-06 09:34:00,
2013-01-06 01:39:00,49.1,46.9,30.03,North,0,0.0,0.0,92,0.02,,,0.02,WUHU216HW,2013-01-06 09:39:00,
2013-01-06 01:45:00,49.0,46.7,30.03,North,0,0.0,0.0,92,0.02,,,0.02,WUHU216HW,2013-01-06 09:45:00,
2013-01-06 01:50:00,49.0,46.7,30.03,North,0,0.0,0.0,92,0.02,,,0.02,WUHU216HW,2013-01-06 09:50:00,
2013-01-06 01:55:00,49.1,46.9,30.03,North,0,0.0,0.0,92,0.02,,,0.02,WUHU216HW,2013-01-06 09:55:00,
2013-01-06 02:00:00,49.0,46.7,30.03,North,0,0.0,0.0,92,0.02,,,0.02,WUHU216HW,2013-01-06 10:00:00,
2013-01-06 02:05:00,49.0,46.7,30.03,North,0,0.0,0.0,92,0.01,,,0.02,WUHU216HW,2013-01-06 10:05:00,
2013-01-06 02:10:00,49.0,46.7,30.03,North,0,0.0,0.0,92,0.01,,,0.02,WUHU216HW,2013-01-06 10:10:00,
2013-01-06 02:15:00,49.0,46.7,30.02,North,0,0.0,0.0,92,0.01,,,0.02,WUHU216HW,2013-01-06 10:15:00,
2013-01-06 02:20:00,49.0,46.7,30.02,North,0,0.0,0.0,92,0.00,,,0.02,WUHU216HW,2013-01-06 10:20:00,
2013-01-06 02:25:00,49.0,46.7,30.02,North,0,0.0,0.0,92,0.00,,,0.02,WUHU216HW,2013-01-06 10:25:00,
2013-01-06 02:30:00,49.0,46.7,30.02,North,0,0.0,0.0,92,0.00,,,0.02,WUHU216HW,2013-01-06 10:30:00,
2013-01-06 02:35:00,49.0,46.7,30.02,North,0,0.0,0.0,92,0.01,,,0.03,WUHU216HW,2013-01-06 10:35:00,
2013-01-06 02:40:00,49.0,46.7,30.02,North,0,0.0,0.0,92,0.01,,,0.03,WUHU216HW,2013-01-06 10:40:00,
2013-01-06 02:46:00,49.0,46.7,30.03,North,0,0.0,0.0,92,0.01,,,0.03,WUHU216HW,2013-01-06 10:46:00,
2013-01-06 02:51:00,49.0,46.7,30.03,North,0,0.0,0.0,92,0.01,,,0.03,WUHU216HW,2013-01-06 10:51:00,
2013-01-06 02:56:00,49.0,46.7,30.03,North,0,0.0,0.0,92,0.01,,,0.03,WUHU216HW,2013-01-06 10:56:00,
2013-01-06 03:01:00,49.0,46.7,30.03,North,0,0.0,0.0,92,0.01,,,0.03,WUHU216HW,2013-01-06 11:01:00,
2013-01-06 03:06:00,49.0,46.7,30.03,North,0,0.0,0.0,92,0.01,,,0.03,WUHU216HW,2013-01-06 11:06:00,
2013-01-06 03:11:00,49.0,46.7,30.03,North,0,0.0,0.0,92,0.01,,,0.03,WUHU216HW,2013-01-06 11:11:00,
2013-01-06 03:16:00,49.0,46.7,30.03,North,0,0.0,0.0,92,0.01,,,0.03,WUHU216HW,2013-01-06 11:16:00,
2013-01-06 03:21:00,49.0,47.0,30.03,North,0,0.0,0.0,93,0.01,,,0.03,WUHU216HW,2013-01-06 11:21:00,
2013-01-06 03:26:00,49.0,47.0,30.04,North,0,0.0,0.0,93,0.01,,,0.03,WUHU216HW,2013-01-06 11:26:00,
2013-01-06 03:31:00,49.0,46.7,30.03,North,0,0.0,0.0,92,0.01,,,0.03,WUHU216HW,2013-01-06 11:31:00,
2013-01-06 03:36:00,48.8,46.6,30.03,North,0,0.0,0.0,92,0.00,,,0.03,WUHU216HW,2013-01-06 11:36:00,
2013-01-06 03:41:00,48.8,46.6,30.03,North,0,0.0,0.0,92,0.00,,,0.03,WUHU216HW,2013-01-06 11:41:00,
2013-01-06 03:47:00,48.6,46.5,30.03,North,0,0.0,0.0,92,0.00,,,0.03,WUHU216HW,2013-01-06 11:47:00,
2013-01-06 03:52:00,48.6,46.5,30.03,North,0,0.0,0.0,92,0.00,,,0.03,WUHU216HW,2013-01-06 11:52:00,
2013-01-06 03:57:00,48.6,46.5,30.04,North,0,0.0,0.0,92,0.00,,,0.03,WUHU216HW,2013-01-06 11:57:00,
2013-01-06 04:02:00,48.4,46.3,30.04,North,0,0.0,0.0,92,0.00,,,0.03,WUHU216HW,2013-01-06 12:02:00,
2013-01-06 04:07:00,48.4,46.3,30.04,North,0,0.0,0.0,92,0.00,,,0.03,WUHU216HW,2013-01-06 12:07:00,
2013-01-06 04:12:00,48.2,46.1,30.04,North,0,0.0,0.0,92,0.00,,,0.03,WUHU216HW,2013-01-06 12:12:00,
2013-01-06 04:17:00,48.1,45.9,30.05,North,0,0.0,0.0,92,0.00,,,0.03,WUHU216HW,2013-01-06 12:17:00,
2013-01-06 04:22:00,48.1,45.9,30.05,North,0,0.0,0.0,92,0.00,,,0.03,WUHU216HW,2013-01-06 12:22:00,
2013-01-06 04:27:00,47.9,45.7,30.05,North,0,0.0,0.0,92,0.00,,,0.03,WUHU216HW,2013-01-06 12:27:00,
2013-01-06 04:32:00,47.7,45.5,30.05,North,0,0.0,0.0,92,0.00,,,0.03,WUHU216HW,2013-01-06 12:32:00,
2013-01-06 04:37:00,47.7,45.5,30.06,North,0,0.0,0.0,92,0.00,,,0.03,WUHU216HW,2013-01-06 12:37:00,
2013-01-06 04:43:00,47.5,45.4,30.06,North,0,0.0,0.0,92,0.00,,,0.03,WUHU216HW,2013-01-06 12:43:00,
2013-01-06 04:48:00,47.3,45.2,30.06,North,0,0.0,0.0,92,0.00,,,0.03,WUHU216HW,2013-01-06 12:48:00,
2013-01-06 04:53:00,47.3,45.2,30.06,North,0,0.0,0.0,92,0.00,,,0.03,WUHU216HW,2013-01-06 12:53:00,
2013-01-06 04:58:00,47.3,45.2,30.07,North,0,0.0,0.0,92,0.00,,,0.03,WUHU216HW,2013-01-06 12:58:00,
2013-01-06 05:03:00,47.3,45.2,30.06,North,0,0.0,0.0,92,0.00,,,0.03,WUHU216HW,2013-01-06 13:03:00,
2013-01-06 05:08:00,47.3,45.2,30.07,North,0,0.0,0.0,92,0.00,,,0.03,WUHU216HW,2013-01-06 13:08:00,
2013-01-06 05:13:00,47.2,45.0,30.07,North,0,0.0,0.0,92,0.01,,,0.04,WUHU216HW,2013-01-06 13:13:00,
2013-01-06 05:18:00,47.2,44.7,30.07,North,0,0.0,0.0,91,0.01,,,0.04,WUHU216HW,2013-01-06 13:18:00,
2013-01-06 05:23:00,47.2,45.0,30.07,North,0,0.0,0.0,92,0.01,,,0.04,WUHU216HW,2013-01-06 13:23:00,
2013-01-06 05:28:00,47.0,44.8,30.08,North,0,0.0,0.0,92,0.01,,,0.04,WUHU216HW,2013-01-06 13:28:00,
2013-01-06 05:33:00,47.0,44.8,30.08,North,0,0.0,0.0,92,0.01,,,0.04,WUHU216HW,2013-01-06 13:33:00,
2013-01-06 05:38:00,47.0,44.8,30.08,North,0,0.0,0.0,92,0.01,,,0.04,WUHU216HW,2013-01-06 13:38:00,
2013-01-06 05:43:00,46.8,44.6,30.09,North,0,0.0,0.0,92,0.02,,,0.04,WUHU216HW,2013-01-06 13:43:00,
2013-01-06 05:48:00,46.8,44.6,30.09,North,0,0.0,0.0,92,0.02,,,0.05,WUHU216HW,2013-01-06 13:48:00,
2013-01-06 05:53:00,46.8,44.6,30.09,North,0,0.0,0.0,92,0.02,,,0.05,WUHU216HW,2013-01-06 13:53:00,
2013-01-06 05:58:00,46.8,44.6,30.09,North,0,0.0,0.0,92,0.03,,,0.06,WUHU216HW,2013-01-06 13:58:00,
2013-01-06 06:04:00,46.8,44.6,30.09,North,0,0.0,0.0,92,0.03,,,0.06,WUHU216HW,2013-01-06 14:04:00,
2013-01-06 06:09:00,46.8,44.6,30.09,North,0,0.0,0.0,92,0.02,,,0.06,WUHU216HW,2013-01-06 14:09:00,
2013-01-06 06:14:00,46.8,44.6,30.09,North,0,0.0,0.0,92,0.02,,,0.06,WUHU216HW,2013-01-06 14:14:00,
2013-01-06 06:19:00,46.8,44.6,30.10,North,0,0.0,0.0,92,0.02,,,0.06,WUHU216HW,2013-01-06 14:19:00,
2013-01-06 06:24:00,46.8,44.6,30.10,North,0,0.0,0.0,92,0.02,,,0.06,WUHU216HW,2013-01-06 14:24:00,
2013-01-06 06:29:00,46.8,44.6,30.11,North,0,0.0,0.0,92,0.02,,,0.06,WUHU216HW,2013-01-06 14:29:00,
2013-01-06 06:34:00,46.8,44.6,30.11,North,0,0.0,0.0,92,0.02,,,0.06,WUHU216HW,2013-01-06 14:34:00,
2013-01-06 06:39:00,46.8,44.6,30.11,North,0,0.0,0.0,92,0.03,,,0.07,WUHU216HW,2013-01-06 14:39:00,
2013-01-06 06:44:00,46.8,44.6,30.11,North,0,0.0,0.0,92,0.02,,,0.07,WUHU216HW,2013-01-06 14:44:00,
2013-01-06 06:49:00,46.8,44.6,30.11,North,0,0.0,0.0,92,0.02,,,0.07,WUHU216HW,2013-01-06 14:49:00,
2013-01-06 06:54:00,46.8,44.6,30.11,North,0,0.0,0.0,92,0.02,,,0.07,WUHU216HW,2013-01-06 14:54:00,
2013-01-06 06:59:00,46.8,44.6,30.12,North,0,0.0,0.0,92,0.01,,,0.07,WUHU216HW,2013-01-06 14:59:00,
2013-01-06 07:05:00,46.8,44.6,30.12,North,0,0.0,0.0,92,0.01,,,0.07,WUHU216HW,2013-01-06 15:05:00,
2013-01-06 07:10:00,46.8,44.6,30.12,North,0,0.0,0.0,92,0.01,,,0.07,WUHU216HW,2013-01-06 15:10:00,
2013-01-06 07:15:00,46.6,44.5,30.12,North,0,0.0,0.0,92,0.01,,,0.07,WUHU216HW,2013-01-06 15:15:00,
2013-01-06 07:20:00,46.6,44.5,30.12,North,0,0.0,0.0,92,0.01,,,0.07,WUHU216HW,2013-01-06 15:20:00,
2013-01-06 07:25:00,46.6,44.5,30.12,North,0,0.0,0.0,92,0.01,,,0.07,WUHU216HW,2013-01-06 15:25:00,
2013-01-06 07:30:00,46.6,44.5,30.11,North,0,0.0,0.0,92,0.01,,,0.07,WUHU216HW,2013-01-06 15:30:00,
2013-01-06 07:35:00,46.4,44.3,30.11,North,0,0.0,0.0,92,0.01,,,0.07,WUHU216HW,2013-01-06 15:35:00,
2013-01-06 07:40:00,46.4,44.3,30.11,North,0,0.0,0.0,92,0.00,,,0.07,WUHU216HW,2013-01-06 15:40:00,
2013-01-06 07:45:00,46.4,44.3,30.10,North,0,0.0,0.0,92,0.00,,,0.07,WUHU216HW,2013-01-06 15:45:00,
2013-01-06 07:50:00,46.4,44.3,30.11,North,0,0.0,0.0,92,0.00,,,0.07,WUHU216HW,2013-01-06 15:50:00,
2013-01-06 07:55:00,46.3,44.1,30.11,North,0,0.0,0.0,92,0.00,,,0.07,WUHU216HW,2013-01-06 15:55:00,
2013-01-06 08:00:00,46.4,44.3,30.11,North,0,0.0,0.0,92,0.00,,,0.07,WUHU216HW,2013-01-06 16:00:00,
2013-01-06 08:05:00,46.3,44.1,30.11,North,0,0.0,0.0,92,0.00,,,0.07,WUHU216HW,2013-01-06 16:05:00,
2013-01-06 08:11:00,46.4,44.3,30.12,North,0,0.0,0.0,92,0.00,,,0.07,WUHU216HW,2013-01-06 16:11:00,
2013-01-06 08:16:00,46.4,44.6,30.12,North,0,0.0,0.0,93,0.00,,,0.07,WUHU216HW,2013-01-06 16:16:00,
2013-01-06 08:21:00,46.4,44.6,30.12,North,0,0.0,0.0,93,0.00,,,0.07,WUHU216HW,2013-01-06 16:21:00,
2013-01-06 08:26:00,46.4,44.6,30.12,North,0,0.0,0.0,93,0.00,,,0.07,WUHU216HW,2013-01-06 16:26:00,
2013-01-06 08:31:00,46.4,44.6,30.12,North,0,0.0,0.0,93,0.00,,,0.07,WUHU216HW,2013-01-06 16:31:00,
2013-01-06 08:36:00,46.6,44.7,30.13,North,0,0.0,0.0,93,0.00,,,0.07,WUHU216HW,2013-01-06 16:36:00,
2013-01-06 08:41:00,46.4,44.6,30.13,North,0,0.0,0.0,93,0.00,,,0.07,WUHU216HW,2013-01-06 16:41:00,
2013-01-06 08:46:00,46.6,44.7,30.13,North,0,0.0,0.0,93,0.01,,,0.08,WUHU216HW,2013-01-06 16:46:00,
2013-01-06 08:51:00,46.6,44.7,30.13,North,0,0.0,0.0,93,0.01,,,0.08,WUHU216HW,2013-01-06 16:51:00,
2013-01-06 08:56:00,46.6,44.7,30.14,North,0,0.0,0.0,93,0.01,,,0.08,WUHU216HW,2013-01-06 16:56:00,
2013-01-06 09:01:00,46.8,44.9,30.14,North,0,0.0,0.0,93,0.01,,,0.08,WUHU216HW,2013-01-06 17:01:00,
2013-01-06 09:07:00,46.8,44.9,30.15,North,0,0.0,0.0,93,0.01,,,0.08,WUHU216HW,2013-01-06 17:07:00,
2013-01-06 09:12:00,47.0,45.1,30.15,North,0,0.0,0.0,93,0.01,,,0.08,WUHU216HW,2013-01-06 17:12:00,
2013-01-06 09:17:00,47.2,45.3,30.15,North,0,0.0,0.0,93,0.01,,,0.08,WUHU216HW,2013-01-06 17:17:00,
2013-01-06 09:22:00,47.2,45.3,30.15,North,0,0.0,0.0,93,0.01,,,0.08,WUHU216HW,2013-01-06 17:22:00,
2013-01-06 09:27:00,47.2,45.3,30.16,North,0,0.0,0.0,93,0.01,,,0.08,WUHU216HW,2013-01-06 17:27:00,
2013-01-06 09:32:00,47.3,45.5,30.16,North,0,0.0,0.0,93,0.01,,,0.08,WUHU216HW,2013-01-06 17:32:00,
2013-01-06 09:37:00,47.5,45.6,30.16,North,0,0.0,0.0,93,0.01,,,0.08,WUHU216HW,2013-01-06 17:37:00,
2013-01-06 09:42:00,47.5,45.6,30.15,North,0,0.0,0.0,93,0.00,,,0.08,WUHU216HW,2013-01-06 17:42:00,
2013-01-06 09:47:00,47.7,45.8,30.16,North,0,0.0,0.0,93,0.00,,,0.08,WUHU216HW,2013-01-06 17:47:00,
2013-01-06 09:52:00,47.9,46.0,30.16,North,0,0.0,0.0,93,0.00,,,0.08,WUHU216HW,2013-01-06 17:52:00,
2013-01-06 09:57:00,47.9,46.0,30.17,North,0,0.0,0.0,93,0.00,,,0.08,WUHU216HW,2013-01-06 17:57:00,
2013-01-06 10:02:00,48.1,46.2,30.17,North,0,0.0,0.0,93,0.00,,,0.08,WUHU216HW,2013-01-06 18:02:00,
2013-01-06 10:07:00,48.1,46.2,30.16,North,0,0.0,0.0,93,0.00,,,0.08,WUHU216HW,2013-01-06 18:07:00,
2013-01-06 10:13:00,48.2,46.4,30.17,North,0,0.0,0.0,93,0.00,,,0.08,WUHU216HW,2013-01-06 18:13:00,
2013-01-06 10:18:00,48.2,46.4,30.17,North,0,0.0,0.0,93,0.00,,,0.08,WUHU216HW,2013-01-06 18:18:00,
2013-01-06 10:23:00,48.2,46.4,30.17,North,0,0.0,0.0,93,0.00,,,0.08,WUHU216HW,2013-01-06 18:23:00,
2013-01-06 10:28:00,48.2,46.4,30.17,North,0,0.0,0.0,93,0.00,,,0.08,WUHU216HW,2013-01-06 18:28:00,
2013-01-06 10:33:00,48.2,46.4,30.16,North,0,0.0,0.0,93,0.00,,,0.08,WUHU216HW,2013-01-06 18:33:00,
2013-01-06 10:38:00,48.6,46.7,30.16,North,0,0.0,0.0,93,0.00,,,0.08,WUHU216HW,2013-01-06 18:38:00,
2013-01-06 10:43:00,48.6,46.7,30.16,North,0,0.0,0.0,93,0.00,,,0.08,WUHU216HW,2013-01-06 18:43:00,
2013-01-06 10:48:00,48.8,46.9,30.16,North,0,0.0,0.0,93,0.00,,,0.08,WUHU216HW,2013-01-06 18:48:00,
2013-01-06 10:53:00,49.0,47.0,30.16,North,0,0.0,0.0,93,0.00,,,0.08,WUHU216HW,2013-01-06 18:53:00,
2013-01-06 10:58:00,49.3,47.3,30.15,North,0,0.0,0.0,93,0.00,,,0.08,WUHU216HW,2013-01-06 18:58:00,
2013-01-06 11:03:00,49.5,47.5,30.15,North,0,0.0,0.0,93,0.00,,,0.08,WUHU216HW,2013-01-06 19:03:00,
2013-01-06 11:08:00,49.7,47.4,30.15,North,0,0.0,0.0,92,0.00,,,0.08,WUHU216HW,2013-01-06 19:08:00,
2013-01-06 11:13:00,49.9,47.6,30.15,North,0,0.0,0.0,92,0.00,,,0.08,WUHU216HW,2013-01-06 19:13:00,
2013-01-06 11:18:00,49.9,47.6,30.14,North,0,0.0,0.0,92,0.00,,,0.08,WUHU216HW,2013-01-06 19:18:00,
2013-01-06 11:23:00,50.0,47.4,30.14,North,0,0.0,0.0,91,0.00,,,0.08,WUHU216HW,2013-01-06 19:23:00,
2013-01-06 11:28:00,49.9,47.3,30.14,North,0,0.0,0.0,91,0.00,,,0.08,WUHU216HW,2013-01-06 19:28:00,
2013-01-06 11:33:00,49.7,47.2,30.14,North,0,0.0,0.0,91,0.00,,,0.08,WUHU216HW,2013-01-06 19:33:00,
2013-01-06 11:38:00,49.7,47.2,30.14,North,0,0.0,0.0,91,0.00,,,0.08,WUHU216HW,2013-01-06 19:38:00,
2013-01-06 11:48:00,49.3,46.8,30.14,North,0,0.0,0.0,91,0.00,,,0.08,WUHU216HW,2013-01-06 19:48:00,
2013-01-06 11:54:00,49.3,46.8,30.13,North,0,0.0,0.0,91,0.00,,,0.08,WUHU216HW,2013-01-06 19:54:00,
2013-01-06 11:59:00,49.5,47.0,30.13,North,0,0.0,0.0,91,0.00,,,0.08,WUHU216HW,2013-01-06 19:59:00,
2013-01-06 12:04:00,49.5,46.7,30.13,North,0,0.0,0.0,90,0.00,,,0.08,WUHU216HW,2013-01-06 20:04:00,
2013-01-06 12:10:00,49.5,46.7,30.13,North,0,0.0,0.0,90,0.00,,,0.08,WUHU216HW,2013-01-06 20:10:00,
2013-01-06 12:11:00,49.7,46.8,30.13,North,0,0.0,0.0,90,0.00,,,0.08,WUHU216HW,2013-01-06 20:11:00,
2013-01-06 12:13:00,49.9,47.0,30.13,North,0,0.0,0.0,90,0.00,,,0.08,WUHU216HW,2013-01-06 20:13:00,
2013-01-06 12:18:00,50.2,47.3,30.13,North,0,0.0,0.0,90,0.00,,,0.08,WUHU216HW,2013-01-06 20:18:00,
2013-01-06 12:23:00,50.2,47.1,30.14,North,0,0.0,0.0,89,0.00,,,0.08,WUHU216HW,2013-01-06 20:23:00,
2013-01-06 12:28:00,50.0,46.5,30.13,North,0,0.0,0.0,88,0.00,,,0.08,WUHU216HW,2013-01-06 20:28:00,
2013-01-06 12:34:00,50.0,46.5,30.13,North,0,0.0,0.0,88,0.00,,,0.08,WUHU216HW,2013-01-06 20:34:00,
2013-01-06 12:39:00,49.9,46.4,30.13,North,0,0.0,0.0,88,0.00,,,0.08,WUHU216HW,2013-01-06 20:39:00,
2013-01-06 12:44:00,50.0,46.5,30.13,North,0,0.0,0.0,88,0.00,,,0.08,WUHU216HW,2013-01-06 20:44:00,
2013-01-06 12:49:00,50.0,46.5,30.13,North,0,0.0,0.0,88,0.00,,,0.08,WUHU216HW,2013-01-06 20:49:00,
2013-01-06 12:54:00,50.2,46.7,30.13,North,0,0.0,0.0,88,0.00,,,0.08,WUHU216HW,2013-01-06 20:54:00,
2013-01-06 12:59:00,50.4,46.9,30.12,North,0,0.0,0.0,88,0.00,,,0.08,WUHU216HW,2013-01-06 20:59:00,
2013-01-06 13:01:00,50.4,46.9,30.12,North,0,0.0,0.0,88,0.00,,,0.08,WUHU216HW,2013-01-06 21:01:00,
2013-01-06 13:06:00,50.6,47.1,30.12,North,0,0.0,0.0,88,0.00,,,0.08,WUHU216HW,2013-01-06 21:06:00,
2013-01-06 13:11:00,50.6,47.1,30.13,North,0,0.0,0.0,88,0.00,,,0.08,WUHU216HW,2013-01-06 21:11:00,
2013-01-06 13:16:00,50.6,46.8,30.13,North,0,0.0,0.0,87,0.00,,,0.08,WUHU216HW,2013-01-06 21:16:00,
2013-01-06 13:21:00,50.8,47.0,30.13,North,0,0.0,0.0,87,0.00,,,0.08,WUHU216HW,2013-01-06 21:21:00,
2013-01-06 13:27:00,50.8,47.3,30.12,North,0,0.0,0.0,88,0.00,,,0.08,WUHU216HW,2013-01-06 21:27:00,
2013-01-06 13:32:00,50.9,47.4,30.12,North,0,0.0,0.0,88,0.00,,,0.08,WUHU216HW,2013-01-06 21:32:00,
2013-01-06 13:37:00,51.1,47.6,30.12,North,0,0.0,0.0,88,0.00,,,0.08,WUHU216HW,2013-01-06 21:37:00,
2013-01-06 13:42:00,51.5,48.0,30.12,North,0,0.0,0.0,88,0.00,,,0.08,WUHU216HW,2013-01-06 21:42:00,
2013-01-06 13:47:00,51.5,47.7,30.12,North,0,0.0,0.0,87,0.00,,,0.08,WUHU216HW,2013-01-06 21:47:00,
2013-01-06 13:52:00,51.5,47.3,30.13,North,0,0.0,0.0,86,0.00,,,0.08,WUHU216HW,2013-01-06 21:52:00,
2013-01-06 13:57:00,51.5,47.3,30.13,North,0,0.0,0.0,86,0.00,,,0.08,WUHU216HW,2013-01-06 21:57:00,
2013-01-06 14:02:00,51.5,47.3,30.13,North,0,0.0,0.0,86,0.00,,,0.08,WUHU216HW,2013-01-06 22:02:00,
2013-01-06 14:07:00,51.5,47.3,30.13,North,0,0.0,0.0,86,0.00,,,0.08,WUHU216HW,2013-01-06 22:07:00,
2013-01-06 14:12:00,51.5,47.3,30.13,North,0,0.0,0.0,86,0.00,,,0.08,WUHU216HW,2013-01-06 22:12:00,
2013-01-06 14:17:00,51.5,47.3,30.13,North,0,0.0,0.0,86,0.00,,,0.08,WUHU216HW,2013-01-06 22:17:00,
2013-01-06 14:22:00,51.5,47.1,30.13,North,0,0.0,0.0,85,0.00,,,0.08,WUHU216HW,2013-01-06 22:22:00,
2013-01-06 14:28:00,51.5,47.1,30.13,North,0,0.0,0.0,85,0.00,,,0.08,WUHU216HW,2013-01-06 22:28:00,
2013-01-06 14:33:00,51.5,47.1,30.13,North,0,0.0,0.0,85,0.00,,,0.08,WUHU216HW,2013-01-06 22:33:00,
2013-01-06 14:38:00,51.5,47.1,30.13,North,0,0.0,0.0,85,0.00,,,0.08,WUHU216HW,2013-01-06 22:38:00,
2013-01-06 14:43:00,51.5,47.1,30.13,North,0,0.0,0.0,85,0.00,,,0.08,WUHU216HW,2013-01-06 22:43:00,
2013-01-06 14:48:00,51.5,47.1,30.13,North,0,0.0,0.0,85,0.00,,,0.08,WUHU216HW,2013-01-06 22:48:00,
2013-01-06 14:53:00,51.5,47.1,30.13,North,0,0.0,0.0,85,0.00,,,0.08,WUHU216HW,2013-01-06 22:53:00,
2013-01-06 14:58:00,51.5,46.8,30.13,North,0,0.0,0.0,84,0.00,,,0.08,WUHU216HW,2013-01-06 22:58:00,
2013-01-06 15:03:00,51.5,46.8,30.13,North,0,0.0,0.0,84,0.00,,,0.08,WUHU216HW,2013-01-06 23:03:00,
2013-01-06 15:08:00,51.5,46.4,30.14,North,0,0.0,0.0,83,0.00,,,0.08,WUHU216HW,2013-01-06 23:08:00,
2013-01-06 15:13:00,51.5,46.8,30.13,North,0,0.0,0.0,84,0.00,,,0.08,WUHU216HW,2013-01-06 23:13:00,
2013-01-06 15:18:00,51.5,46.8,30.13,North,0,0.0,0.0,84,0.00,,,0.08,WUHU216HW,2013-01-06 23:18:00,
2013-01-06 15:23:00,51.5,46.8,30.14,North,0,0.0,0.0,84,0.00,,,0.08,WUHU216HW,2013-01-06 23:23:00,
2013-01-06 15:28:00,51.5,46.8,30.14,North,0,0.0,0.0,84,0.00,,,0.08,WUHU216HW,2013-01-06 23:28:00,
2013-01-06 15:33:00,51.3,46.6,30.14,North,0,0.0,0.0,84,0.00,,,0.08,WUHU216HW,2013-01-06 23:33:00,
2013-01-06 15:39:00,51.1,46.5,30.14,North,0,0.0,0.0,84,0.00,,,0.08,WUHU216HW,2013-01-06 23:39:00,
2013-01-06 15:44:00,51.1,46.5,30.14,North,0,0.0,0.0,84,0.00,,,0.08,WUHU216HW,2013-01-06 23:44:00,
2013-01-06 15:49:00,51.1,46.7,30.14,North,0,0.0,0.0,85,0.00,,,0.08,WUHU216HW,2013-01-06 23:49:00,
2013-01-06 15:54:00,51.1,46.7,30.14,North,0,0.0,0.0,85,0.00,,,0.08,WUHU216HW,2013-01-06 23:54:00,
2013-01-06 15:59:00,51.1,47.0,30.14,North,0,0.0,0.0,86,0.00,,,0.08,WUHU216HW,2013-01-06 23:59:00,
2013-01-06 16:04:00,50.9,46.8,30.14,North,0,0.0,0.0,86,0.00,,,0.08,WUHU216HW,2013-01-07 00:04:00,
2013-01-06 16:09:00,50.8,46.6,30.14,North,0,0.0,0.0,86,0.00,,,0.08,WUHU216HW,2013-01-07 00:09:00,
2013-01-06 16:14:00,50.8,46.6,30.14,North,0,0.0,0.0,86,0.00,,,0.08,WUHU216HW,2013-01-07 00:14:00,
2013-01-06 16:19:00,50.8,46.6,30.14,North,0,0.0,0.0,86,0.00,,,0.08,WUHU216HW,2013-01-07 00:19:00,
2013-01-06 16:24:00,50.6,46.4,30.14,North,0,0.0,0.0,86,0.00,,,0.08,WUHU216HW,2013-01-07 00:24:00,
2013-01-06 16:29:00,50.4,46.3,30.14,North,0,0.0,0.0,86,0.00,,,0.08,WUHU216HW,2013-01-07 00:29:00,
2013-01-06 16:34:00,50.4,46.6,30.14,North,0,0.0,0.0,87,0.00,,,0.08,WUHU216HW,2013-01-07 00:34:00,
2013-01-06 16:39:00,50.4,46.3,30.14,North,0,0.0,0.0,86,0.00,,,0.08,WUHU216HW,2013-01-07 00:39:00,
2013-01-06 16:44:00,50.2,46.1,30.14,North,0,0.0,0.0,86,0.00,,,0.08,WUHU216HW,2013-01-07 00:44:00,
2013-01-06 16:49:00,50.0,45.9,30.14,North,0,0.0,0.0,86,0.00,,,0.08,WUHU216HW,2013-01-07 00:49:00,
2013-01-06 16:54:00,49.9,45.8,30.14,North,0,0.0,0.0,86,0.00,,,0.08,WUHU216HW,2013-01-07 00:54:00,
2013-01-06 17:00:00,49.5,45.7,30.14,North,0,0.0,0.0,87,0.00,,,0.08,WUHU216HW,2013-01-07 01:00:00,
2013-01-06 17:05:00,49.1,45.4,30.14,North,0,0.0,0.0,87,0.00,,,0.08,WUHU216HW,2013-01-07 01:05:00,
2013-01-06 17:10:00,48.8,45.1,30.14,North,0,0.0,0.0,87,0.00,,,0.08,WUHU216HW,2013-01-07 01:10:00,
2013-01-06 17:15:00,48.4,44.7,30.14,North,0,0.0,0.0,87,0.00,,,0.08,WUHU216HW,2013-01-07 01:15:00,
2013-01-06 17:20:00,48.1,44.4,30.14,North,0,0.0,0.0,87,0.00,,,0.08,WUHU216HW,2013-01-07 01:20:00,
2013-01-06 17:25:00,47.7,44.0,30.14,North,0,0.0,0.0,87,0.00,,,0.08,WUHU216HW,2013-01-07 01:25:00,
2013-01-06 17:30:00,47.3,43.7,30.14,North,0,0.0,0.0,87,0.00,,,0.08,WUHU216HW,2013-01-07 01:30:00,
2013-01-06 17:35:00,47.2,43.8,30.14,North,0,0.0,0.0,88,0.00,,,0.08,WUHU216HW,2013-01-07 01:35:00,
2013-01-06 17:40:00,46.8,43.5,30.14,North,0,0.0,0.0,88,0.00,,,0.08,WUHU216HW,2013-01-07 01:40:00,
2013-01-06 17:45:00,46.6,43.3,30.14,North,0,0.0,0.0,88,0.00,,,0.08,WUHU216HW,2013-01-07 01:45:00,
2013-01-06 17:50:00,46.4,43.1,30.14,North,0,0.0,0.0,88,0.00,,,0.08,WUHU216HW,2013-01-07 01:50:00,
2013-01-06 17:55:00,46.3,42.9,30.14,North,0,0.0,0.0,88,0.00,,,0.08,WUHU216HW,2013-01-07 01:55:00,
2013-01-06 18:01:00,45.9,42.6,30.14,North,0,0.0,0.0,88,0.00,,,0.08,WUHU216HW,2013-01-07 02:01:00,
2013-01-06 18:06:00,45.7,42.4,30.14,North,0,0.0,0.0,88,0.00,,,0.08,WUHU216HW,2013-01-07 02:06:00,
2013-01-06 18:11:00,45.5,42.2,30.14,North,0,0.0,0.0,88,0.00,,,0.08,WUHU216HW,2013-01-07 02:11:00,
2013-01-06 18:16:00,45.4,42.4,30.14,North,0,0.0,0.0,89,0.00,,,0.08,WUHU216HW,2013-01-07 02:16:00,
2013-01-06 18:21:00,45.2,42.2,30.14,North,0,0.0,0.0,89,0.00,,,0.08,WUHU216HW,2013-01-07 02:21:00,
2013-01-06 18:26:00,45.0,42.0,30.14,North,0,0.0,0.0,89,0.00,,,0.08,WUHU216HW,2013-01-07 02:26:00,
2013-01-06 18:31:00,45.0,42.0,30.13,North,0,0.0,0.0,89,0.00,,,0.08,WUHU216HW,2013-01-07 02:31:00,
2013-01-06 18:36:00,44.8,41.9,30.14,North,0,0.0,0.0,89,0.00,,,0.08,WUHU216HW,2013-01-07 02:36:00,
2013-01-06 18:41:00,44.6,41.9,30.14,North,0,0.0,0.0,90,0.00,,,0.08,WUHU216HW,2013-01-07 02:41:00,
2013-01-06 18:46:00,44.5,41.5,30.14,North,0,0.0,0.0,89,0.00,,,0.08,WUHU216HW,2013-01-07 02:46:00,
2013-01-06 18:51:00,44.3,41.3,30.14,North,0,0.0,0.0,89,0.00,,,0.08,WUHU216HW,2013-01-07 02:51:00,
2013-01-06 18:56:00,44.3,41.3,30.14,North,0,0.0,0.0,89,0.00,,,0.08,WUHU216HW,2013-01-07 02:56:00,
2013-01-06 19:01:00,44.3,41.3,30.14,North,0,0.0,0.0,89,0.00,,,0.08,WUHU216HW,2013-01-07 03:01:00,
2013-01-06 19:06:00,44.1,41.1,30.14,North,0,0.0,0.0,89,0.00,,,0.08,WUHU216HW,2013-01-07 03:06:00,
2013-01-06 19:11:00,43.9,41.0,30.14,North,0,0.0,0.0,89,0.00,,,0.08,WUHU216HW,2013-01-07 03:11:00,
2013-01-06 19:16:00,43.7,40.8,30.14,North,0,0.0,0.0,89,0.00,,,0.08,WUHU216HW,2013-01-07 03:16:00,
2013-01-06 19:21:00,43.6,40.9,30.14,North,0,0.0,0.0,90,0.00,,,0.08,WUHU216HW,2013-01-07 03:21:00,
2013-01-06 19:26:00,43.6,40.9,30.14,North,0,0.0,0.0,90,0.00,,,0.08,WUHU216HW,2013-01-07 03:26:00,
2013-01-06 19:31:00,43.4,40.7,30.14,North,0,0.0,0.0,90,0.00,,,0.08,WUHU216HW,2013-01-07 03:31:00,
2013-01-06 19:36:00,43.2,40.5,30.15,North,0,0.0,0.0,90,0.00,,,0.08,WUHU216HW,2013-01-07 03:36:00,
2013-01-06 19:42:00,43.2,40.5,30.15,North,0,0.0,0.0,90,0.00,,,0.08,WUHU216HW,2013-01-07 03:42:00,
2013-01-06 19:47:00,43.2,40.5,30.15,North,0,0.0,0.0,90,0.00,,,0.08,WUHU216HW,2013-01-07 03:47:00,
2013-01-06 19:52:00,43.0,40.3,30.15,North,0,0.0,0.0,90,0.00,,,0.08,WUHU216HW,2013-01-07 03:52:00,
2013-01-06 19:57:00,42.8,40.1,30.15,North,0,0.0,0.0,90,0.00,,,0.08,WUHU216HW,2013-01-07 03:57:00,
2013-01-06 20:02:00,42.8,40.1,30.15,North,0,0.0,0.0,90,0.00,,,0.08,WUHU216HW,2013-01-07 04:02:00,
2013-01-06 20:07:00,42.8,40.1,30.15,North,0,0.0,0.0,90,0.00,,,0.08,WUHU216HW,2013-01-07 04:07:00,
2013-01-06 20:12:00,42.8,40.1,30.15,North,0,0.0,0.0,90,0.00,,,0.08,WUHU216HW,2013-01-07 04:12:00,
2013-01-06 20:17:00,42.8,40.1,30.16,North,0,0.0,0.0,90,0.00,,,0.08,WUHU216HW,2013-01-07 04:17:00,
2013-01-06 20:22:00,42.7,40.0,30.16,North,0,0.0,0.0,90,0.00,,,0.08,WUHU216HW,2013-01-07 04:22:00,
2013-01-06 20:27:00,42.7,40.0,30.16,North,0,0.0,0.0,90,0.00,,,0.08,WUHU216HW,2013-01-07 04:27:00,
2013-01-06 20:32:00,42.5,39.8,30.16,North,0,0.0,0.0,90,0.00,,,0.08,WUHU216HW,2013-01-07 04:32:00,
2013-01-06 20:37:00,42.5,40.1,30.17,North,0,0.0,0.0,91,0.00,,,0.08,WUHU216HW,2013-01-07 04:37:00,
2013-01-06 20:42:00,42.3,39.9,30.17,North,0,0.0,0.0,91,0.00,,,0.08,WUHU216HW,2013-01-07 04:42:00,
2013-01-06 20:47:00,42.3,39.9,30.17,North,0,0.0,0.0,91,0.00,,,0.08,WUHU216HW,2013-01-07 04:47:00,
2013-01-06 20:52:00,42.1,39.7,30.17,North,0,0.0,0.0,91,0.00,,,0.08,WUHU216HW,2013-01-07 04:52:00,
2013-01-06 20:58:00,42.1,39.7,30.17,North,0,0.0,0.0,91,0.00,,,0.08,WUHU216HW,2013-01-07 04:58:00,
2013-01-06 21:00:00,42.1,39.7,30.17,North,0,0.0,0.0,91,0.00,,,0.08,WUHU216HW,2013-01-07 05:00:00,
2013-01-06 21:01:00,42.1,39.7,30.17,North,0,0.0,0.0,91,0.00,,,0.08,WUHU216HW,2013-01-07 05:01:00,
2013-01-06 21:02:00,42.1,39.7,30.17,North,0,0.0,0.0,91,0.00,,,0.08,WUHU216HW,2013-01-07 05:02:00,
2013-01-06 21:07:00,41.9,39.5,30.17,North,0,0.0,0.0,91,0.00,,,0.08,WUHU216HW,2013-01-07 05:07:00,
2013-01-06 21:12:00,41.9,39.5,30.17,North,0,0.0,0.0,91,0.00,,,0.08,WUHU216HW,2013-01-07 05:12:00,
2013-01-06 21:17:00,41.9,39.5,30.17,North,0,0.0,0.0,91,0.00,,,0.08,WUHU216HW,2013-01-07 05:17:00,
2013-01-06 21:22:00,41.9,39.5,30.17,North,0,0.0,0.0,91,0.00,,,0.08,WUHU216HW,2013-01-07 05:22:00,
2013-01-06 21:27:00,41.8,39.3,30.17,North,0,0.0,0.0,91,0.00,,,0.08,WUHU216HW,2013-01-07 05:27:00,
2013-01-06 21:32:00,41.8,39.3,30.17,North,0,0.0,0.0,91,0.00,,,0.08,WUHU216HW,2013-01-07 05:32:00,
2013-01-06 21:38:00,41.8,39.3,30.17,North,0,0.0,0.0,91,0.00,,,0.08,WUHU216HW,2013-01-07 05:38:00,
2013-01-06 21:43:00,41.6,39.2,30.17,North,0,0.0,0.0,91,0.00,,,0.08,WUHU216HW,2013-01-07 05:43:00,
2013-01-06 21:48:00,41.6,39.4,30.17,North,0,0.0,0.0,92,0.00,,,0.08,WUHU216HW,2013-01-07 05:48:00,
2013-01-06 21:53:00,41.6,39.4,30.16,North,0,0.0,0.0,92,0.00,,,0.08,WUHU216HW,2013-01-07 05:53:00,
2013-01-06 21:58:00,41.4,39.2,30.16,North,0,0.0,0.0,92,0.00,,,0.08,WUHU216HW,2013-01-07 05:58:00,
2013-01-06 22:03:00,41.4,39.2,30.16,North,0,0.0,0.0,92,0.00,,,0.08,WUHU216HW,2013-01-07 06:03:00,
2013-01-06 22:08:00,41.4,39.2,30.16,North,0,0.0,0.0,92,0.00,,,0.08,WUHU216HW,2013-01-07 06:08:00,
2013-01-06 22:13:00,41.6,39.4,30.16,North,0,0.0,0.0,92,0.00,,,0.08,WUHU216HW,2013-01-07 06:13:00,
2013-01-06 22:18:00,41.4,39.2,30.16,North,0,0.0,0.0,92,0.00,,,0.08,WUHU216HW,2013-01-07 06:18:00,
2013-01-06 22:23:00,41.4,39.2,30.15,North,0,0.0,0.0,92,0.00,,,0.08,WUHU216HW,2013-01-07 06:23:00,
2013-01-06 22:29:00,41.4,39.2,30.15,North,0,0.0,0.0,92,0.00,,,0.08,WUHU216HW,2013-01-07 06:29:00,
2013-01-06 22:34:00,41.4,39.2,30.15,North,0,0.0,0.0,92,0.00,,,0.08,WUHU216HW,2013-01-07 06:34:00,
2013-01-06 22:39:00,41.4,39.2,30.14,North,0,0.0,0.0,92,0.00,,,0.08,WUHU216HW,2013-01-07 06:39:00,
2013-01-06 22:44:00,41.4,39.2,30.14,North,0,0.0,0.0,92,0.00,,,0.08,WUHU216HW,2013-01-07 06:44:00,
2013-01-06 22:49:00,41.2,39.1,30.14,North,0,0.0,0.0,92,0.00,,,0.08,WUHU216HW,2013-01-07 06:49:00,
2013-01-06 22:54:00,41.2,39.3,30.14,North,0,0.0,0.0,93,0.00,,,0.08,WUHU216HW,2013-01-07 06:54:00,
2013-01-06 22:59:00,41.2,39.3,30.14,North,0,0.0,0.0,93,0.00,,,0.08,WUHU216HW,2013-01-07 06:59:00,
2013-01-06 23:04:00,41.2,39.3,30.15,North,0,0.0,0.0,93,0.00,,,0.08,WUHU216HW,2013-01-07 07:04:00,
2013-01-06 23:09:00,41.0,39.2,30.16,North,0,0.0,0.0,93,0.00,,,0.08,WUHU216HW,2013-01-07 07:09:00,
2013-01-06 23:14:00,41.0,39.2,30.16,North,0,0.0,0.0,93,0.00,,,0.08,WUHU216HW,2013-01-07 07:14:00,
2013-01-06 23:19:00,41.0,39.2,30.16,North,0,0.0,0.0,93,0.00,,,0.08,WUHU216HW,2013-01-07 07:19:00,
2013-01-06 23:24:00,40.9,39.0,30.16,North,0,0.0,0.0,93,0.00,,,0.08,WUHU216HW,2013-01-07 07:24:00,
2013-01-06 23:29:00,40.9,39.0,30.16,North,0,0.0,0.0,93,0.00,,,0.08,WUHU216HW,2013-01-07 07:29:00,
2013-01-06 23:34:00,40.9,39.0,30.16,North,0,0.0,0.0,93,0.00,,,0.08,WUHU216HW,2013-01-07 07:34:00,
2013-01-06 23:40:00,40.7,38.8,30.15,North,0,0.0,0.0,93,0.00,,,0.08,WUHU216HW,2013-01-07 07:40:00,
2013-01-06 23:45:00,40.7,38.8,30.15,North,0,0.0,0.0,93,0.00,,,0.08,WUHU216HW,2013-01-07 07:45:00,
2013-01-06 23:50:00,40.7,38.8,30.15,North,0,0.0,0.0,93,0.00,,,0.08,WUHU216HW,2013-01-07 07:50:00,
2013-01-06 23:55:00,40.7,38.8,30.16,North,0,0.0,0.0,93,0.00,,,0.08,WUHU216HW,2013-01-07 07:55:00,